Terminal Aerodrome Forecast
Issued by NWS

Home | Current Version | Previous Version | Text Only | Print | Product List | Glossary On
Versions: 1 2 3 4 5 6 7 8 9 10 11 12 13 14 15 16 17 18 19 20
000
FTUS43 KILX 291255 AAA
TAFCMI
TAF AMD
KCMI 291255Z 2913/3012 VRB06KT 5SM BR VCTS SCT035CB BKN120
     FM291500 33008KT P6SM SCT010 BKN250
      TEMPO 2915/2916 BKN010
     FM291800 33012G20KT P6SM SCT250
     FM300100 28006KT P6SM SKC=

USA.gov is the U.S. government's official web portal to all federal, state and local government web resources and services.